createdAt,value
2022-08-26T00:05:23.404Z,11.20
2022-08-26T00:10:46.091Z,12.20
2022-08-26T00:16:09.240Z,12.70
2022-08-26T00:21:33.174Z,12.17
2022-08-26T00:26:56.553Z,14.15
2022-08-26T00:32:19.077Z,13.93
2022-08-26T00:37:41.919Z,14.00
2022-08-26T00:43:07.137Z,14.00
2022-08-26T00:48:31.863Z,13.80
2022-08-26T00:54:02.747Z,11.80
2022-08-26T00:59:29.279Z,13.60
2022-08-26T01:04:56.929Z,12.25
2022-08-26T01:10:26.353Z,11.73
2022-08-26T01:15:52.998Z,11.97
2022-08-26T01:21:40.752Z,12.55
2022-08-26T01:27:09.792Z,12.10
2022-08-26T01:32:36.598Z,11.73
2022-08-26T01:38:02.508Z,12.53
2022-08-26T01:43:31.919Z,12.60
2022-08-26T01:48:57.154Z,11.80
2022-08-26T01:54:21.281Z,12.00
2022-08-26T01:59:45.703Z,12.37
2022-08-26T02:05:12.457Z,11.07
2022-08-26T02:10:35.809Z,11.70
2022-08-26T02:16:01.289Z,11.57
2022-08-26T02:21:25.963Z,12.47
2022-08-26T02:26:49.109Z,12.47
2022-08-26T02:32:13.786Z,12.23
2022-08-26T02:37:39.782Z,12.58
2022-08-26T02:43:03.844Z,11.97
2022-08-26T02:48:30.822Z,12.53
2022-08-26T02:53:53.077Z,12.70
2022-08-26T02:59:15.902Z,12.82
2022-08-26T03:04:38.467Z,12.75
2022-08-26T03:10:01.489Z,13.00
2022-08-26T03:15:30.023Z,13.63
2022-08-26T03:20:54.254Z,13.00
2022-08-26T03:26:18.015Z,13.05
2022-08-26T03:31:41.254Z,13.40
2022-08-26T03:37:05.356Z,13.93
2022-08-26T03:42:28.946Z,14.50
2022-08-26T03:47:52.568Z,14.80
2022-08-26T03:53:17.780Z,14.70
2022-08-26T03:58:42.929Z,13.68
2022-08-26T04:04:07.182Z,13.80
2022-08-26T04:09:32.589Z,13.65
2022-08-26T04:14:57.371Z,13.10
2022-08-26T04:20:21.042Z,13.63
2022-08-26T04:25:43.373Z,13.93
2022-08-26T04:31:05.641Z,14.03
2022-08-26T04:36:29.288Z,13.05
2022-08-26T04:41:54.026Z,11.80
2022-08-26T04:47:17.464Z,13.27
2022-08-26T04:52:43.135Z,13.67
2022-08-26T04:58:07.477Z,12.87
2022-08-26T05:03:32.474Z,12.57
2022-08-26T05:08:55.072Z,13.10
2022-08-26T05:14:18.416Z,12.40
2022-08-26T05:19:42.828Z,11.63
2022-08-26T05:25:05.528Z,11.33
2022-08-26T05:30:28.741Z,11.93
2022-08-26T05:35:51.926Z,11.70
2022-08-26T05:41:22.022Z,10.77
2022-08-26T05:46:45.101Z,11.25
2022-08-26T05:52:07.904Z,10.38
2022-08-26T05:57:32.464Z,10.50
2022-08-26T06:02:54.699Z,9.57
2022-08-26T06:08:19.209Z,9.70
2022-08-26T06:13:45.140Z,9.30
2022-08-26T06:19:10.648Z,9.70
2022-08-26T06:24:50.828Z,8.65
2022-08-26T06:30:15.373Z,8.40
2022-08-26T06:35:38.444Z,8.60
2022-08-26T06:41:05.985Z,8.08
2022-08-26T06:46:31.607Z,8.35
2022-08-26T06:51:55.341Z,7.25
2022-08-26T06:57:18.326Z,7.53
2022-08-26T07:02:40.994Z,7.25
2022-08-26T07:08:06.039Z,6.85
2022-08-26T07:13:30.482Z,6.60
2022-08-26T07:18:55.138Z,6.87
2022-08-26T07:24:17.381Z,5.70
2022-08-26T07:29:40.870Z,5.95
2022-08-26T07:35:03.047Z,6.25
2022-08-26T07:40:26.382Z,6.12
2022-08-26T07:45:50.366Z,5.35
2022-08-26T07:51:12.810Z,5.87
2022-08-26T07:56:35.587Z,4.80
2022-08-26T08:02:00.251Z,4.58
2022-08-26T08:07:38.713Z,5.83
2022-08-26T08:12:47.239Z,4.55
2022-08-26T08:18:15.775Z,4.08
2022-08-26T08:23:37.000Z,3.30
2022-08-26T08:29:01.581Z,3.87
2022-08-26T08:34:25.797Z,3.95
2022-08-26T08:39:51.322Z,3.65
2022-08-26T08:45:36.561Z,4.70
2022-08-26T08:51:30.272Z,3.83
2022-08-26T08:57:20.194Z,6.00
2022-08-26T09:02:59.435Z,3.70
2022-08-26T09:08:29.195Z,4.40
2022-08-26T09:13:56.990Z,3.83
2022-08-26T09:19:24.988Z,4.10
2022-08-26T09:24:50.799Z,3.87
2022-08-26T09:30:18.200Z,4.30
2022-08-26T09:35:54.687Z,3.77
2022-08-26T09:41:27.424Z,4.10
2022-08-26T09:46:53.747Z,4.08
2022-08-26T09:52:29.385Z,3.77
2022-08-26T09:58:07.769Z,3.95
2022-08-26T10:03:34.434Z,3.50
2022-08-26T10:09:10.826Z,3.67
2022-08-26T10:14:39.945Z,3.93
2022-08-26T10:20:24.939Z,3.13
2022-08-26T10:25:54.344Z,3.40
2022-08-26T10:31:40.120Z,3.10
2022-08-26T10:37:18.676Z,5.13
2022-08-26T10:43:08.476Z,3.63
2022-08-26T10:48:35.305Z,4.10
2022-08-26T10:54:13.372Z,3.70
2022-08-26T10:59:52.527Z,3.60
2022-08-26T11:05:25.571Z,4.00
2022-08-26T11:11:04.097Z,3.80
2022-08-26T11:16:43.502Z,3.97
2022-08-26T11:27:56.583Z,3.63
2022-08-26T11:33:20.571Z,3.40
2022-08-26T11:38:49.653Z,3.40
2022-08-26T11:44:12.030Z,3.37
2022-08-26T11:49:38.273Z,4.23
2022-08-26T11:55:17.392Z,3.80
2022-08-26T12:00:52.277Z,3.50
2022-08-26T12:06:21.942Z,3.30
2022-08-26T12:11:47.859Z,2.95
2022-08-26T12:17:17.259Z,3.50
2022-08-26T12:22:48.231Z,2.93
2022-08-26T12:28:11.348Z,3.70
2022-08-26T12:33:38.866Z,3.47
2022-08-26T12:39:01.543Z,3.27
2022-08-26T12:44:53.736Z,3.47
2022-08-26T12:50:15.834Z,2.95
2022-08-26T12:55:55.335Z,3.27
2022-08-26T13:01:22.758Z,3.30
2022-08-26T13:06:47.009Z,3.03
2022-08-26T13:12:12.136Z,3.30
2022-08-26T13:17:36.430Z,3.12
2022-08-26T13:22:59.392Z,3.55
2022-08-26T13:28:22.203Z,2.57
2022-08-26T13:33:45.715Z,3.20
2022-08-26T13:39:10.141Z,3.00
2022-08-26T13:44:33.026Z,2.85
2022-08-26T13:49:56.830Z,3.22
2022-08-26T13:55:20.700Z,3.00
2022-08-26T14:00:43.886Z,2.83
2022-08-26T14:06:06.317Z,2.90
2022-08-26T14:11:36.988Z,3.10
2022-08-26T14:16:59.980Z,3.13
2022-08-26T14:22:20.333Z,3.02
2022-08-26T14:27:42.931Z,2.63
2022-08-26T14:33:09.262Z,2.80
2022-08-26T14:38:31.975Z,2.83
2022-08-26T14:43:59.459Z,3.03
2022-08-26T14:49:22.333Z,2.83
2022-08-26T14:54:45.170Z,2.83
2022-08-26T15:00:07.536Z,2.87
2022-08-26T15:05:30.949Z,3.57
2022-08-26T15:10:53.813Z,3.20
2022-08-26T15:16:17.435Z,3.00
2022-08-26T15:21:40.948Z,2.73
2022-08-26T15:27:03.430Z,3.40
2022-08-26T15:32:25.951Z,2.80
2022-08-26T15:37:48.793Z,3.80
2022-08-26T15:43:27.909Z,3.17
2022-08-26T15:48:35.888Z,2.80
2022-08-26T15:53:59.078Z,2.53
2022-08-26T15:59:22.908Z,3.03
2022-08-26T16:04:45.700Z,3.20
2022-08-26T16:10:08.039Z,2.83
2022-08-26T16:15:30.635Z,3.37
2022-08-26T16:21:13.162Z,2.73
2022-08-26T16:26:34.311Z,2.97
2022-08-26T16:31:57.219Z,2.60
2022-08-26T16:37:20.916Z,2.72
2022-08-26T16:42:44.104Z,2.83
2022-08-26T16:48:06.992Z,2.80
2022-08-26T16:53:31.780Z,7.00
2022-08-26T16:58:55.902Z,3.13
2022-08-26T17:04:32.599Z,2.70
2022-08-26T17:09:54.908Z,3.00
2022-08-26T17:15:18.888Z,2.87
2022-08-26T17:20:42.019Z,3.00
2022-08-26T17:26:04.336Z,3.30
2022-08-26T17:31:28.624Z,3.57
2022-08-26T17:36:51.000Z,3.23
2022-08-26T17:42:13.855Z,3.43
2022-08-26T17:47:36.590Z,3.13
2022-08-26T17:53:00.262Z,3.53
2022-08-26T17:58:24.565Z,3.37
2022-08-26T18:03:47.785Z,3.77
2022-08-26T18:09:10.953Z,4.00
2022-08-26T18:14:33.964Z,3.80
2022-08-26T18:19:56.147Z,35.73
2022-08-26T18:25:20.886Z,5.45
2022-08-26T18:30:43.697Z,3.92
2022-08-26T18:36:06.363Z,4.20
2022-08-26T18:41:30.309Z,3.67
2022-08-26T18:46:52.564Z,4.40
2022-08-26T18:52:15.228Z,4.20
2022-08-26T18:57:38.107Z,4.70
2022-08-26T19:03:00.412Z,3.93
2022-08-26T19:08:23.205Z,4.15
2022-08-26T19:13:45.534Z,4.33
2022-08-26T19:19:08.804Z,5.45
2022-08-26T19:24:33.480Z,3.67
2022-08-26T19:29:57.953Z,3.97
2022-08-26T19:35:21.034Z,3.93
2022-08-26T19:40:44.513Z,4.30
2022-08-26T19:46:07.184Z,5.70
2022-08-26T19:51:38.957Z,4.63
2022-08-26T19:57:01.204Z,5.25
2022-08-26T20:02:24.250Z,5.10
2022-08-26T20:07:46.837Z,4.90
2022-08-26T20:13:10.071Z,4.83
2022-08-26T20:18:50.153Z,4.77
2022-08-26T20:24:28.245Z,5.33
2022-08-26T20:29:52.161Z,5.00
2022-08-26T20:35:16.119Z,4.87
2022-08-26T20:40:38.497Z,4.60
2022-08-26T20:46:01.345Z,4.90
2022-08-26T20:51:24.985Z,5.10
2022-08-26T20:56:48.678Z,5.23
2022-08-26T21:02:11.200Z,5.20
2022-08-26T21:07:33.616Z,4.63
2022-08-26T21:12:56.353Z,4.80
2022-08-26T21:18:20.253Z,4.70
2022-08-26T21:23:42.782Z,4.90
2022-08-26T21:29:08.549Z,5.00
2022-08-26T21:34:32.056Z,4.97
2022-08-26T21:39:54.873Z,5.63
2022-08-26T21:45:18.555Z,5.30
2022-08-26T21:50:43.842Z,5.47
2022-08-26T21:56:08.265Z,5.80
2022-08-26T22:01:35.063Z,5.63
2022-08-26T22:07:07.209Z,5.65
2022-08-26T22:12:30.017Z,5.10
2022-08-26T22:17:53.475Z,6.13
2022-08-26T22:23:17.773Z,6.47
2022-08-26T22:28:41.118Z,5.53
2022-08-26T22:34:04.281Z,6.55
2022-08-26T22:39:29.559Z,6.00
2022-08-26T22:44:51.836Z,6.07
2022-08-26T22:50:14.400Z,5.97
2022-08-26T22:55:37.261Z,6.50
2022-08-26T23:01:01.770Z,6.47
2022-08-26T23:06:26.419Z,6.80
2022-08-26T23:11:50.060Z,9.33
2022-08-26T23:17:14.784Z,10.00
2022-08-26T23:22:37.579Z,9.63
2022-08-26T23:28:02.028Z,8.88
2022-08-26T23:33:25.047Z,8.57
2022-08-26T23:38:52.439Z,8.25
2022-08-26T23:44:11.862Z,7.57
2022-08-26T23:49:34.648Z,6.60
2022-08-26T23:54:58.503Z,7.43
